Weather History for KHYS - April, 2013

Change the Weather History Date:

Friday, April 12, 2013

  Actual Average (KHLC) Record (KHLC)
Temperature  
Mean Temperature 41 °F 50 °F  
Max Temperature 59 °F 64 °F 86 °F (1925)
Min Temperature 23 °F 36 °F 13 °F (1940)
Degree Days  
Heating Degree Days 24    
Moisture  
Dew Point 27 °F    
Average Humidity 60    
Maximum Humidity 86    
Minimum Humidity 34    
Precipitation  
Precipitation 0.00 in 0.06 in - ()
Month to date precipitation 0.70  
Year to date precipitation 3.30  
Sea Level Pressure  
Sea Level Pressure 29.94 in    
Wind  
Wind Speed 8 mph (NNW)    
Max Wind Speed 18 mph    
Max Gust Speed 17 mph    
Visibility 10 miles    
Events      
T = Trace of Precipitation, MM = Missing Value Source: NWS Daily Summary

Daily Weather History Graph

Daily Weather History Graph

Search for Another Location

Airport or City:

Trip Planner

Search our weather history database for the weather conditions in past years. The results will help you decide how hot, cold, wet, or windy it might be!

Date:

Astronomy

Apr. 12, 2013 Rise Set
Actual Time 7:04 AM CDT 8:11 PM CDT
Civil Twilight 6:37 AM CDT 8:38 PM CDT
Nautical Twilight 6:04 AM CDT 9:11 PM CDT
Astronomical Twilight 5:30 AM CDT 9:45 PM CDT
Moon 8:16 AM CDT (4/12) 10:42 PM CDT (4/12)
Length of Visible Light 14h 01m
Length of Day
13h 06m
Waxing Crescent, 5% of the Moon is Illuminated
Apr 12
Waxing Crescent
Apr 18
First Quarter
Apr 25
Full
May 2
Last Quarter
May 9
New

Hourly Weather History & Observations

Time (CDT) Temp. Windchill Dew Point Humidity Pressure Visibility Wind Dir Wind Speed Gust Speed Precip Events Conditions
12:15 AM 28.4 °F 22.2 °F 21.2 °F 74% 29.86 in 10.0 mi NW 5.8 mph - N/A   Clear
12:35 AM 28.4 °F 21.2 °F 23.0 °F 80% 29.86 in 10.0 mi NW 6.9 mph - N/A   Clear
12:55 AM 26.6 °F 19.1 °F 21.2 °F 80% 29.87 in 10.0 mi NW 6.9 mph - N/A   Clear
1:15 AM 26.6 °F 18.2 °F 21.2 °F 80% 29.88 in 10.0 mi WNW 8.1 mph - N/A   Clear
1:35 AM 26.6 °F 19.1 °F 21.2 °F 80% 29.89 in 10.0 mi West 6.9 mph - N/A   Clear
1:55 AM 24.8 °F 15.3 °F 19.4 °F 80% 29.89 in 10.0 mi West 9.2 mph - N/A   Clear
2:15 AM 24.8 °F 16.9 °F 19.4 °F 80% 29.90 in 10.0 mi West 6.9 mph - N/A   Clear
2:35 AM 23.0 °F 13.9 °F 19.4 °F 86% 29.90 in 10.0 mi WNW 8.1 mph - N/A   Clear
2:55 AM 24.8 °F 16.1 °F 19.4 °F 80% 29.90 in 10.0 mi West 8.1 mph - N/A   Clear
3:15 AM 24.8 °F 16.9 °F 19.4 °F 80% 29.89 in 10.0 mi West 6.9 mph - N/A   Clear
3:35 AM 24.8 °F 16.1 °F 19.4 °F 80% 29.89 in 10.0 mi WNW 8.1 mph - N/A   Clear
3:55 AM 24.8 °F 16.1 °F 19.4 °F 80% 29.89 in 10.0 mi WNW 8.1 mph - N/A   Clear
4:15 AM 24.8 °F 16.1 °F 21.2 °F 86% 29.89 in 10.0 mi WNW 8.1 mph - N/A   Clear
4:35 AM 26.6 °F 18.2 °F 21.2 °F 80% 29.89 in 10.0 mi NW 8.1 mph - N/A   Clear
4:55 AM 24.8 °F 16.9 °F 19.4 °F 80% 29.90 in 10.0 mi West 6.9 mph - N/A   Clear
5:15 AM 24.8 °F 16.1 °F 19.4 °F 80% 29.90 in 10.0 mi West 8.1 mph - N/A   Clear
5:35 AM 24.8 °F 19.1 °F 19.4 °F 80% 29.91 in 10.0 mi WNW 4.6 mph - N/A   Clear
5:55 AM 24.8 °F 16.9 °F 21.2 °F 86% 29.91 in 10.0 mi WNW 6.9 mph - N/A   Clear
6:15 AM 26.6 °F 16.8 °F 21.2 °F 80% 29.90 in 10.0 mi WNW 10.4 mph - N/A   Clear
6:35 AM 28.4 °F 19.1 °F 21.2 °F 74% 29.91 in 10.0 mi NW 10.4 mph - N/A   Clear
6:55 AM 26.6 °F 17.5 °F 21.2 °F 80% 29.91 in 10.0 mi WNW 9.2 mph - N/A   Clear
7:15 AM 26.6 °F 17.5 °F 21.2 °F 80% 29.92 in 10.0 mi West 9.2 mph - N/A   Clear
7:35 AM 26.6 °F 20.0 °F 21.2 °F 80% 29.93 in 10.0 mi West 5.8 mph - N/A   Clear
7:55 AM 28.4 °F 20.4 °F 23.0 °F 80% 29.93 in 10.0 mi WNW 8.1 mph - N/A   Clear
8:15 AM 30.2 °F 22.6 °F 24.8 °F 80% 29.93 in 10.0 mi WNW 8.1 mph - N/A   Clear
8:35 AM 33.8 °F 25.8 °F 26.6 °F 75% 29.94 in 10.0 mi WNW 10.4 mph - N/A   Clear
8:55 AM 35.6 °F 28.6 °F 26.6 °F 70% 29.95 in 10.0 mi WNW 9.2 mph - N/A   Clear
9:15 AM 37.4 °F 31.4 °F 28.4 °F 70% 29.95 in 10.0 mi WNW 8.1 mph - N/A   Clear
9:55 AM 42.8 °F 36.6 °F 28.4 °F 57% 29.95 in 10.0 mi NW 11.5 mph - N/A   Scattered Clouds
10:15 AM 42.8 °F 38.0 °F 30.2 °F 61% 29.95 in 10.0 mi WNW 8.1 mph - N/A   Clear
10:35 AM 44.6 °F 38.4 °F 30.2 °F 57% 29.96 in 10.0 mi NNW 12.7 mph - N/A   Clear
10:55 AM 46.4 °F 41.1 °F 28.4 °F 50% 29.96 in 10.0 mi North 11.5 mph - N/A   Clear
11:15 AM 46.4 °F 41.9 °F 30.2 °F 53% 29.96 in 10.0 mi WNW 9.2 mph 17.3 mph N/A   Clear
11:35 AM 48.2 °F - 28.4 °F 46% 29.97 in 10.0 mi NNW 8.1 mph 17.3 mph N/A   Clear
11:55 AM 48.2 °F - 30.2 °F 50% 29.97 in 10.0 mi NNE 8.1 mph - N/A   Clear
12:15 PM 50.0 °F - 28.4 °F 43% 29.97 in 10.0 mi NNW 11.5 mph 16.1 mph N/A   Clear
12:35 PM 51.8 °F - 30.2 °F 44% 29.97 in 10.0 mi NNW 10.4 mph 16.1 mph N/A   Clear
12:55 PM 51.8 °F - 30.2 °F 44% 29.96 in 10.0 mi NNW 9.2 mph - N/A   Clear
1:15 PM 51.8 °F - 30.2 °F 44% 29.96 in 10.0 mi North 8.1 mph - N/A   Clear
1:35 PM 53.6 °F - 30.2 °F 41% 29.95 in 10.0 mi NNE 9.2 mph - N/A   Clear
1:55 PM 53.6 °F - 30.2 °F 41% 29.95 in 10.0 mi NNW 5.8 mph - N/A   Clear
2:15 PM 55.4 °F - 30.2 °F 38% 29.95 in 10.0 mi North 4.6 mph - N/A   Clear
2:35 PM 55.4 °F - 30.2 °F 38% 29.95 in 10.0 mi West 9.2 mph - N/A   Scattered Clouds
2:55 PM 55.4 °F - 30.2 °F 38% 29.95 in 10.0 mi NNE 9.2 mph - N/A   Scattered Clouds
3:15 PM 55.4 °F - 30.2 °F 38% 29.94 in 10.0 mi Calm Calm - N/A   Clear
3:35 PM 57.2 °F - 30.2 °F 36% 29.94 in 10.0 mi NW 5.8 mph - N/A   Partly Cloudy
3:55 PM 59.0 °F - 30.2 °F 34% 29.93 in 10.0 mi NNW 6.9 mph 17.3 mph N/A   Partly Cloudy
4:15 PM 57.2 °F - 30.2 °F 36% 29.92 in 10.0 mi Calm Calm - N/A   Partly Cloudy
4:35 PM 59.0 °F - 30.2 °F 34% 29.92 in 10.0 mi SSE 3.5 mph - N/A   Mostly Cloudy
4:55 PM 57.2 °F - 30.2 °F 36% 29.92 in 10.0 mi North 4.6 mph - N/A   Scattered Clouds
5:15 PM 57.2 °F - 30.2 °F 36% 29.91 in 10.0 mi ESE 3.5 mph - N/A   Partly Cloudy
5:35 PM 57.2 °F - 30.2 °F 36% 29.91 in 10.0 mi ENE 6.9 mph - N/A   Partly Cloudy
5:55 PM 57.2 °F - 30.2 °F 36% 29.91 in 10.0 mi East 8.1 mph - N/A   Clear
6:15 PM 57.2 °F - 30.2 °F 36% 29.91 in 10.0 mi ENE 5.8 mph - N/A   Clear
6:35 PM 57.2 °F - 32.0 °F 38% 29.91 in 10.0 mi East 6.9 mph - N/A   Scattered Clouds
6:55 PM 55.4 °F - 30.2 °F 38% 29.92 in 10.0 mi NE 10.4 mph - N/A   Mostly Cloudy
7:15 PM 55.4 °F - 33.8 °F 44% 29.92 in 10.0 mi NE 11.5 mph - N/A   Mostly Cloudy
7:35 PM 53.6 °F - 30.2 °F 41% 29.92 in 10.0 mi NNE 12.7 mph - N/A   Scattered Clouds
7:55 PM 51.8 °F - 30.2 °F 44% 29.94 in 10.0 mi NNE 18.4 mph - N/A   Mostly Cloudy
8:15 PM 51.8 °F - 28.4 °F 41% 29.95 in 10.0 mi NNE 15.0 mph - N/A   Overcast
8:35 PM 50.0 °F - 30.2 °F 47% 29.98 in 10.0 mi North 15.0 mph - N/A   Overcast
8:55 PM 48.2 °F - 30.2 °F 50% 29.99 in 10.0 mi North 11.5 mph - N/A   Overcast
9:15 PM 48.2 °F - 30.2 °F 50% 30.00 in 10.0 mi North 9.2 mph - N/A   Overcast
9:35 PM 48.2 °F - 32.0 °F 54% 30.00 in 10.0 mi NE 9.2 mph - N/A   Overcast
9:55 PM 46.4 °F 41.9 °F 30.2 °F 53% 30.02 in 10.0 mi NNE 9.2 mph - N/A   Mostly Cloudy
10:15 PM 44.6 °F 40.2 °F 30.2 °F 57% 30.03 in 10.0 mi NNE 8.1 mph - N/A   Clear
10:35 PM 42.8 °F 38.6 °F 30.2 °F 61% 30.03 in 10.0 mi NNE 6.9 mph - N/A   Clear
10:55 PM 42.8 °F 38.6 °F 32.0 °F 66% 30.04 in 10.0 mi NNE 6.9 mph - N/A   Mostly Cloudy
11:15 PM 42.8 °F 39.3 °F 33.8 °F 70% 30.04 in 10.0 mi NE 5.8 mph - N/A   Overcast
11:35 PM 41.0 °F 39.0 °F 33.8 °F 76% 30.03 in 10.0 mi NE 3.5 mph - N/A   Mostly Cloudy
11:55 PM 41.0 °F - 33.8 °F 76% 30.03 in 10.0 mi Calm Calm - N/A   Mostly Cloudy